Time,TemperatureF,DewpointF,PressureIn,WindDirection,WindDirectionDegrees,WindSpeedMPH,WindSpeedGustMPH,Humidity,HourlyPrecipIn,Conditions,Clouds,dailyrainin,SoftwareType,DateUTC
2013-01-27 00:06:00,46.9,38.0,29.89,SSE,162,3.0,6.0,71,0.00,,,0.00,weatherlink.com 1.10,2013-01-27 07:06:00,
2013-01-27 00:22:00,46.6,38.0,29.89,ESE,111,0.0,2.0,73,0.00,,,0.00,weatherlink.com 1.10,2013-01-27 07:22:00,
2013-01-27 00:36:00,45.7,39.0,29.89,ESE,113,1.0,2.0,77,0.00,,,0.00,weatherlink.com 1.10,2013-01-27 07:36:00,
2013-01-27 00:51:00,45.7,40.0,29.89,SE,139,2.0,6.0,80,0.00,,,0.00,weatherlink.com 1.10,2013-01-27 07:51:00,
2013-01-27 01:07:00,45.6,40.0,29.88,SSE,156,3.0,5.0,80,0.00,,,0.00,weatherlink.com 1.10,2013-01-27 08:07:00,
2013-01-27 01:22:00,45.3,40.0,29.89,ESE,121,1.0,5.0,82,0.00,,,0.00,weatherlink.com 1.10,2013-01-27 08:22:00,
2013-01-27 01:37:00,44.9,40.0,29.89,SE,129,3.0,6.0,83,0.00,,,0.00,weatherlink.com 1.10,2013-01-27 08:37:00,
2013-01-27 01:51:00,44.4,40.0,29.88,SSE,159,1.0,5.0,83,0.00,,,0.00,weatherlink.com 1.10,2013-01-27 08:51:00,
2013-01-27 02:06:00,44.3,39.0,29.88,South,173,0.0,1.0,83,0.00,,,0.00,weatherlink.com 1.10,2013-01-27 09:06:00,
2013-01-27 02:21:00,44.3,39.0,29.89,SW,229,0.0,1.0,83,0.00,,,0.00,weatherlink.com 1.10,2013-01-27 09:21:00,
2013-01-27 02:36:00,44.2,39.0,29.89,SE,133,0.0,2.0,83,0.00,,,0.00,weatherlink.com 1.10,2013-01-27 09:36:00,
2013-01-27 02:52:00,44.2,39.0,29.89,SSE,166,1.0,3.0,83,0.00,,,0.00,weatherlink.com 1.10,2013-01-27 09:52:00,
2013-01-27 03:06:00,44.1,39.0,29.89,SSE,158,1.0,5.0,83,0.00,,,0.00,weatherlink.com 1.10,2013-01-27 10:06:00,
2013-01-27 03:21:00,43.7,38.0,29.88,SSE,148,0.0,4.0,81,0.00,,,0.00,weatherlink.com 1.10,2013-01-27 10:21:00,
2013-01-27 03:36:00,43.6,38.0,29.88,SE,139,1.0,6.0,79,0.00,,,0.00,weatherlink.com 1.10,2013-01-27 10:36:00,
2013-01-27 03:51:00,43.3,37.0,29.88,SE,145,0.0,3.0,79,0.00,,,0.00,weatherlink.com 1.10,2013-01-27 10:51:00,
2013-01-27 04:07:00,42.9,37.0,29.89,SE,127,1.0,2.0,81,0.00,,,0.00,weatherlink.com 1.10,2013-01-27 11:07:00,
2013-01-27 04:22:00,42.2,37.0,29.88,South,187,0.0,3.0,82,0.00,,,0.00,weatherlink.com 1.10,2013-01-27 11:22:00,
2013-01-27 04:37:00,41.7,37.0,29.88,SSW,194,0.0,1.0,83,0.00,,,0.00,weatherlink.com 1.10,2013-01-27 11:37:00,
2013-01-27 04:52:00,41.4,37.0,29.88,SSE,150,0.0,3.0,84,0.00,,,0.00,weatherlink.com 1.10,2013-01-27 11:52:00,
2013-01-27 05:07:00,40.8,36.0,29.88,SSE,149,0.0,1.0,84,0.00,,,0.00,weatherlink.com 1.10,2013-01-27 12:07:00,
2013-01-27 05:22:00,40.5,36.0,29.89,SE,145,0.0,1.0,85,0.00,,,0.00,weatherlink.com 1.10,2013-01-27 12:22:00,
2013-01-27 05:37:00,40.9,36.0,29.89,SSE,153,0.0,3.0,84,0.00,,,0.00,weatherlink.com 1.10,2013-01-27 12:37:00,
2013-01-27 05:52:00,41.3,37.0,29.89,SSE,155,1.0,6.0,83,0.00,,,0.00,weatherlink.com 1.10,2013-01-27 12:52:00,
2013-01-27 06:07:00,41.1,36.0,29.90,SE,134,1.0,3.0,83,0.00,,,0.00,weatherlink.com 1.10,2013-01-27 13:07:00,
2013-01-27 06:22:00,40.7,36.0,29.90,SE,145,1.0,3.0,84,0.00,,,0.00,weatherlink.com 1.10,2013-01-27 13:22:00,
2013-01-27 06:37:00,40.7,36.0,29.91,SE,146,0.0,2.0,83,0.00,,,0.00,weatherlink.com 1.10,2013-01-27 13:37:00,
2013-01-27 06:52:00,40.8,36.0,29.91,SE,141,1.0,2.0,84,0.00,,,0.00,weatherlink.com 1.10,2013-01-27 13:52:00,
2013-01-27 07:07:00,40.7,37.0,29.91,SE,142,1.0,3.0,85,0.00,,,0.00,weatherlink.com 1.10,2013-01-27 14:07:00,
2013-01-27 07:22:00,40.8,37.0,29.92,SE,136,2.0,3.0,85,0.00,,,0.00,weatherlink.com 1.10,2013-01-27 14:22:00,
2013-01-27 07:37:00,40.7,36.0,29.92,SSE,157,1.0,4.0,84,0.00,,,0.00,weatherlink.com 1.10,2013-01-27 14:37:00,
2013-01-27 07:52:00,40.7,37.0,29.92,ESE,108,2.0,3.0,85,0.00,,,0.00,weatherlink.com 1.10,2013-01-27 14:52:00,
2013-01-27 08:07:00,41.1,37.0,29.92,SSE,168,1.0,5.0,85,0.00,,,0.00,weatherlink.com 1.10,2013-01-27 15:07:00,
2013-01-27 08:22:00,43.2,37.0,29.93,SSW,201,0.0,4.0,80,0.00,,,0.00,weatherlink.com 1.10,2013-01-27 15:22:00,
2013-01-27 08:37:00,45.5,38.0,29.93,SSE,149,2.0,4.0,75,0.00,,,0.00,weatherlink.com 1.10,2013-01-27 15:37:00,
2013-01-27 08:52:00,46.0,37.0,29.94,ESE,121,2.0,6.0,72,0.00,,,0.00,weatherlink.com 1.10,2013-01-27 15:52:00,
2013-01-27 09:07:00,47.1,37.0,29.93,SE,146,2.0,5.0,69,0.00,,,0.00,weatherlink.com 1.10,2013-01-27 16:07:00,
2013-01-27 09:22:00,46.9,37.0,29.94,SSE,166,1.0,7.0,69,0.00,,,0.00,weatherlink.com 1.10,2013-01-27 16:22:00,
2013-01-27 09:37:00,47.7,38.0,29.94,SW,222,2.0,4.0,69,0.00,,,0.00,weatherlink.com 1.10,2013-01-27 16:37:00,
2013-01-27 09:52:00,48.7,39.0,29.94,ESE,110,4.0,5.0,69,0.00,,,0.00,weatherlink.com 1.10,2013-01-27 16:52:00,
2013-01-27 10:08:00,49.7,39.0,29.94,WSW,248,3.0,6.0,66,0.00,,,0.00,weatherlink.com 1.10,2013-01-27 17:08:00,
2013-01-27 10:23:00,51.5,39.0,29.93,West,259,3.0,5.0,63,0.00,,,0.00,weatherlink.com 1.10,2013-01-27 17:23:00,
2013-01-27 10:37:00,52.4,39.0,29.93,SW,220,3.0,6.0,60,0.00,,,0.00,weatherlink.com 1.10,2013-01-27 17:37:00,
2013-01-27 10:52:00,53.1,39.0,29.93,SSE,162,1.0,5.0,59,0.00,,,0.00,weatherlink.com 1.10,2013-01-27 17:52:00,
2013-01-27 11:08:00,54.6,39.0,29.93,WSW,247,6.0,7.0,56,0.00,,,0.00,weatherlink.com 1.10,2013-01-27 18:08:00,
2013-01-27 11:23:00,55.4,40.0,29.92,WSW,253,2.0,6.0,56,0.00,,,0.00,weatherlink.com 1.10,2013-01-27 18:23:00,
2013-01-27 11:38:00,56.5,38.0,29.91,SW,236,7.0,12.0,51,0.00,,,0.00,weatherlink.com 1.10,2013-01-27 18:38:00,
2013-01-27 11:53:00,55.7,38.0,29.91,WNW,292,1.0,10.0,52,0.00,,,0.00,weatherlink.com 1.10,2013-01-27 18:53:00,
2013-01-27 12:08:00,55.4,38.0,29.90,WSW,252,7.0,8.0,52,0.00,,,0.00,weatherlink.com 1.10,2013-01-27 19:08:00,
2013-01-27 12:23:00,55.3,37.0,29.89,WSW,255,4.0,11.0,51,0.00,,,0.00,weatherlink.com 1.10,2013-01-27 19:23:00,
2013-01-27 12:38:00,56.8,37.0,29.88,WNW,295,2.0,11.0,48,0.00,,,0.00,weatherlink.com 1.10,2013-01-27 19:38:00,
2013-01-27 12:53:00,58.0,37.0,29.87,SSW,205,5.0,10.0,45,0.00,,,0.00,weatherlink.com 1.10,2013-01-27 19:53:00,
2013-01-27 13:08:00,58.0,36.0,29.86,WSW,252,13.0,13.0,44,0.00,,,0.00,weatherlink.com 1.10,2013-01-27 20:08:00,
2013-01-27 13:23:00,57.1,36.0,29.85,SW,233,5.0,12.0,46,0.00,,,0.00,weatherlink.com 1.10,2013-01-27 20:23:00,
2013-01-27 13:38:00,59.5,37.0,29.85,WSW,251,3.0,10.0,43,0.00,,,0.00,weatherlink.com 1.10,2013-01-27 20:38:00,
2013-01-27 13:53:00,60.2,37.0,29.84,WNW,295,1.0,14.0,42,0.00,,,0.00,weatherlink.com 1.10,2013-01-27 20:53:00,
2013-01-27 14:08:00,60.2,36.0,29.84,West,276,2.0,10.0,40,0.00,,,0.00,weatherlink.com 1.10,2013-01-27 21:08:00,
2013-01-27 14:23:00,60.8,35.0,29.83,SW,221,8.0,12.0,38,0.00,,,0.00,weatherlink.com 1.10,2013-01-27 21:23:00,
2013-01-27 14:38:00,61.5,33.0,29.83,West,264,3.0,11.0,35,0.00,,,0.00,weatherlink.com 1.10,2013-01-27 21:38:00,
2013-01-27 14:53:00,61.4,34.0,29.82,SSW,197,4.0,10.0,36,0.00,,,0.00,weatherlink.com 1.10,2013-01-27 21:53:00,
2013-01-27 15:08:00,62.1,33.0,29.82,WNW,295,2.0,10.0,34,0.00,,,0.00,weatherlink.com 1.10,2013-01-27 22:08:00,
2013-01-27 15:23:00,62.3,34.0,29.82,West,276,0.0,6.0,35,0.00,,,0.00,weatherlink.com 1.10,2013-01-27 22:23:00,
2013-01-27 15:38:00,62.3,34.0,29.81,WNW,302,1.0,6.0,35,0.00,,,0.00,weatherlink.com 1.10,2013-01-27 22:38:00,
2013-01-27 15:54:00,62.4,34.0,29.81,NW,315,1.0,5.0,34,0.00,,,0.00,weatherlink.com 1.10,2013-01-27 22:54:00,
2013-01-27 16:09:00,62.2,33.0,29.80,West,271,2.0,4.0,34,0.00,,,0.00,weatherlink.com 1.10,2013-01-27 23:09:00,
2013-01-27 16:23:00,61.5,33.0,29.80,SW,233,1.0,3.0,35,0.00,,,0.00,weatherlink.com 1.10,2013-01-27 23:23:00,
2013-01-27 16:39:00,60.4,34.0,29.80,West,278,0.0,5.0,37,0.00,,,0.00,weatherlink.com 1.10,2013-01-27 23:39:00,
2013-01-27 16:53:00,58.7,33.0,29.80,NNW,338,0.0,4.0,38,0.00,,,0.00,weatherlink.com 1.10,2013-01-27 23:53:00,
2013-01-27 17:09:00,57.5,33.0,29.81,WSW,245,1.0,3.0,40,0.00,,,0.00,weatherlink.com 1.10,2013-01-28 00:09:00,
2013-01-27 17:24:00,56.8,33.0,29.80,WSW,257,0.0,4.0,41,0.00,,,0.00,weatherlink.com 1.10,2013-01-28 00:24:00,
2013-01-27 17:38:00,56.4,33.0,29.82,SSW,203,2.0,4.0,42,0.00,,,0.00,weatherlink.com 1.10,2013-01-28 00:38:00,
2013-01-27 17:53:00,56.3,35.0,29.82,South,187,0.0,3.0,45,0.00,,,0.00,weatherlink.com 1.10,2013-01-28 00:53:00,
2013-01-27 18:08:00,56.1,36.0,29.82,SW,225,0.0,4.0,47,0.00,,,0.00,weatherlink.com 1.10,2013-01-28 01:08:00,
2013-01-27 18:24:00,55.6,36.0,29.83,North,11,1.0,2.0,48,0.00,,,0.00,weatherlink.com 1.10,2013-01-28 01:24:00,
2013-01-27 18:38:00,55.1,39.0,29.83,North,351,0.0,1.0,54,0.00,,,0.00,weatherlink.com 1.10,2013-01-28 01:38:00,
2013-01-27 18:53:00,53.6,38.0,29.83,North,349,0.0,1.0,57,0.00,,,0.00,weatherlink.com 1.10,2013-01-28 01:53:00,
2013-01-27 19:08:00,52.9,38.0,29.83,North,356,0.0,2.0,57,0.00,,,0.00,weatherlink.com 1.10,2013-01-28 02:08:00,
2013-01-27 19:24:00,53.3,39.0,29.83,North,356,0.0,1.0,58,0.00,,,0.00,weatherlink.com 1.10,2013-01-28 02:24:00,
2013-01-27 19:38:00,53.1,38.0,29.83,North,356,0.0,0.0,58,0.00,,,0.00,weatherlink.com 1.10,2013-01-28 02:38:00,
2013-01-27 19:54:00,52.7,38.0,29.83,North,356,0.0,1.0,58,0.00,,,0.00,weatherlink.com 1.10,2013-01-28 02:54:00,
2013-01-27 20:08:00,53.3,38.0,29.83,North,356,0.0,0.0,57,0.00,,,0.00,weatherlink.com 1.10,2013-01-28 03:08:00,
2013-01-27 20:24:00,52.4,38.0,29.83,North,356,0.0,0.0,59,0.00,,,0.00,weatherlink.com 1.10,2013-01-28 03:24:00,
2013-01-27 20:38:00,51.3,39.0,29.83,North,356,0.0,0.0,62,0.00,,,0.00,weatherlink.com 1.10,2013-01-28 03:38:00,
2013-01-27 20:54:00,50.1,38.0,29.83,SW,229,0.0,2.0,63,0.00,,,0.00,weatherlink.com 1.10,2013-01-28 03:54:00,
2013-01-27 21:08:00,48.6,38.0,29.84,SW,226,1.0,1.0,66,0.00,,,0.00,weatherlink.com 1.10,2013-01-28 04:08:00,
2013-01-27 21:24:00,47.2,37.0,29.84,SW,228,0.0,0.0,68,0.00,,,0.00,weatherlink.com 1.10,2013-01-28 04:24:00,
2013-01-27 21:38:00,46.6,37.0,29.84,SW,222,0.0,0.0,70,0.00,,,0.00,weatherlink.com 1.10,2013-01-28 04:38:00,
2013-01-27 21:53:00,46.3,37.0,29.84,SE,142,0.0,1.0,71,0.00,,,0.00,weatherlink.com 1.10,2013-01-28 04:53:00,
2013-01-27 22:08:00,46.1,38.0,29.84,SE,142,0.0,1.0,73,0.00,,,0.00,weatherlink.com 1.10,2013-01-28 05:08:00,
2013-01-27 22:23:00,46.1,38.0,29.84,SE,143,0.0,1.0,72,0.00,,,0.00,weatherlink.com 1.10,2013-01-28 05:23:00,
2013-01-27 22:39:00,45.9,37.0,29.84,ESE,121,1.0,4.0,72,0.00,,,0.00,weatherlink.com 1.10,2013-01-28 05:39:00,
2013-01-27 22:54:00,45.8,37.0,29.84,SE,138,1.0,4.0,70,0.00,,,0.00,weatherlink.com 1.10,2013-01-28 05:54:00,
2013-01-27 23:09:00,45.8,36.0,29.84,SE,130,0.0,4.0,68,0.00,,,0.00,weatherlink.com 1.10,2013-01-28 06:09:00,
2013-01-27 23:24:00,45.5,36.0,29.83,SE,135,2.0,3.0,69,0.00,,,0.00,weatherlink.com 1.10,2013-01-28 06:24:00,
2013-01-27 23:39:00,44.9,35.0,29.84,ESE,115,5.0,5.0,69,0.00,,,0.00,weatherlink.com 1.10,2013-01-28 06:39:00,
2013-01-27 23:54:00,44.3,35.0,29.84,SE,137,1.0,5.0,70,0.00,,,0.00,weatherlink.com 1.10,2013-01-28 06:54:00,